Terminal Aerodrome Forecast
Issued by NWS

Home | Current Version | Previous Version | Text Only | Print | Product List | Glossary On
Versions: 1 2 3 4 5 6 7 8 9 10 11 12
000
FTUS45 KGGW 250521
TAFOLF
TAF
KOLF 250521Z 2506/2606 23006KT P6SM SKC
     FM251800 26012KT P6SM SCT240
     FM252000 29015G23KT P6SM SCT220
     FM252200 32017KT P6SM SCT140
     FM260000 35018KT P6SM BKN060=

USA.gov is the U.S. government's official web portal to all federal, state and local government web resources and services.